logo dgac
Domingo 21 de Abril del 2019

Metar

Buscar por aerodromo o helipuerto
Ingrese nombre de aeródromo, localidad o designador OACI:


METAR del 21-04-2019 a las 11:00 UTC
METAR SUMU 211100Z 21009KT 9999 BKN026 16/08 Q1016 TEMPO RABR
Viento: dirección 210 grados, velocidad 9 nudos
Visibilidad: 10 km o más
Nubes: Nublado a 2600 pies sobre el nivel del aeródromo
Temperatura: 16 °C
Rocío: 8 °C
Humedad_relativa: 59%
Presión: 1016 hPa
Se esperan cambios en forma temporal en:
Lluvia Neblina
METAR del 21-04-2019 a las 11:00 UTC
METAR SPJC 211100Z 24004KT 9999 SCT009 SCT170 19/18 Q1013 NOSIG RMK PP000
Viento: dirección 240 grados, velocidad 4 nudos
Visibilidad: 10 km o más
Nubes: Nubosidad parcial a 900 pies sobre el nivel del aeródromo
Nubes: Nubosidad parcial a 17000 pies sobre el nivel del aeródromo
Temperatura: 19 °C
Rocío: 18 °C
Humedad_relativa: 94%
Presión: 1013 hPa
No se esperan cambios significativos en las próximas 2 horas
Información adicional:
Nan: PP000
METAR del 21-04-2019 a las 11:00 UTC
METAR SLVR 211100Z 34010KT 9999 SCT006 BKN008 FEW030CB BKN200 25/24 Q1010
Viento: dirección 340 grados, velocidad 10 nudos
Visibilidad: 10 km o más
Nubes: Nubosidad parcial a 600 pies sobre el nivel del aeródromo
Nubes: Nublado a 800 pies sobre el nivel del aeródromo
Nubes: Escasa nubosidad a 3000 pies sobre el nivel del aeródromo, cumulonimbus
Nubes: Nublado a 20000 pies sobre el nivel del aeródromo
Temperatura: 25 °C
Rocío: 24 °C
Humedad_relativa: 94%
Presión: 1010 hPa
METAR del 21-04-2019 a las 11:00 UTC
METAR SLLP 211100Z 33004KT 9999 FEW010 SCT070 BKN200 06/02 Q1039
Viento: dirección 330 grados, velocidad 4 nudos
Visibilidad: 10 km o más
Nubes: Escasa nubosidad a 1000 pies sobre el nivel del aeródromo
Nubes: Nubosidad parcial a 7000 pies sobre el nivel del aeródromo
Nubes: Nublado a 20000 pies sobre el nivel del aeródromo
Temperatura: 6 °C
Rocío: 2 °C
Humedad_relativa: 76%
Presión: 1039 hPa
METAR del 21-04-2019 a las 11:00 UTC
METAR SGAS 211100Z 28005KT 230V320 7000 TSRA BKN010 OVC020 FEW040CB 21/21 Q1009
Viento: dirección 280 grados, velocidad 5 nudos
Viento con dirección variable entre 230 y 320 grados
Visibilidad: 7000 metros
Tormenta Lluvia
Nubes: Nublado a 1000 pies sobre el nivel del aeródromo
Nubes: Cubierto a 2000 pies sobre el nivel del aeródromo
Nubes: Escasa nubosidad a 4000 pies sobre el nivel del aeródromo, cumulonimbus
Temperatura: 21 °C
Rocío: 21 °C
Humedad_relativa: 100%
Presión: 1009 hPa
METAR del 21-04-2019 a las 11:00 UTC
METAR SBPA 211100Z VRB02KT 9999 SCT013 BKN031 OVC090 22/19 Q1012
Viento: dirección variable, velocidad 2 nudos
Visibilidad: 10 km o más
Nubes: Nubosidad parcial a 1300 pies sobre el nivel del aeródromo
Nubes: Nublado a 3100 pies sobre el nivel del aeródromo
Nubes: Cubierto a 9000 pies sobre el nivel del aeródromo
Temperatura: 22 °C
Rocío: 19 °C
Humedad_relativa: 83%
Presión: 1012 hPa
METAR del 21-04-2019 a las 11:00 UTC
METAR SBGR 211100Z 08004KT CAVOK 19/17 Q1017
Viento: dirección 080 grados, velocidad 4 nudos
Visibilidad: 10 km o más,
    sin nubes bajo los 5.000 pies o bajo del MSA (Mínimo de Seguridad del Aeródromo),
    sin cumulonimbus, y sin fenómenos de tiempo significativo en el aeródromo o alrededores
Temperatura: 19 °C
Rocío: 17 °C
Humedad_relativa: 88%
Presión: 1017 hPa
METAR del 21-04-2019 a las 11:00 UTC
METAR SBGL 211100Z 01004KT 9999 FEW008 24/19 Q1013
Viento: dirección 010 grados, velocidad 4 nudos
Visibilidad: 10 km o más
Nubes: Escasa nubosidad a 800 pies sobre el nivel del aeródromo
Temperatura: 24 °C
Rocío: 19 °C
Humedad_relativa: 74%
Presión: 1013 hPa
METAR del 21-04-2019 a las 11:00 UTC
METAR SAWG 211100Z 25017KT 9999 FEW040 BKN100 10/06 Q1014
Viento: dirección 250 grados, velocidad 17 nudos
Visibilidad: 10 km o más
Nubes: Escasa nubosidad a 4000 pies sobre el nivel del aeródromo
Nubes: Nublado a 10000 pies sobre el nivel del aeródromo
Temperatura: 10 °C
Rocío: 6 °C
Humedad_relativa: 76%
Presión: 1014 hPa
METAR del 21-04-2019 a las 11:00 UTC
METAR SARE 211100Z 13008KT 9999 OVC008 21/21 Q1009
Viento: dirección 130 grados, velocidad 8 nudos
Visibilidad: 10 km o más
Nubes: Cubierto a 800 pies sobre el nivel del aeródromo
Temperatura: 21 °C
Rocío: 21 °C
Humedad_relativa: 100%
Presión: 1009 hPa